Time;durP1;ratioP1;P1;durP2;ratioP2;P2;SDS_P1;SDS_P2;PMS_P1;PMS_P2;Temp;Humidity;BMP_temperature;BMP_pressure;BME280_temperature;BME280_humidity;BME280_pressure;Samples;Min_cycle;Max_cycle;Signal;HPM_P1;HPM_P2
2022/04/22 00:00:01;;;;;;;8.55;3.95;;;13.80;90.20;;;;;;5038656;28;20029;-94
2022/04/22 00:02:26;;;;;;;8.50;5.68;;;13.80;90.20;;;;;;5056340;28;20471;-94
2022/04/22 00:04:52;;;;;;;7.20;3.38;;;13.80;90.30;;;;;;5056454;28;20508;-94
2022/04/22 00:07:18;;;;;;;7.38;4.13;;;13.80;90.30;;;;;;5038611;28;20128;-94
2022/04/22 00:09:44;;;;;;;9.35;4.55;;;13.80;90.30;;;;;;5056130;28;20021;-94
2022/04/22 00:12:10;;;;;;;7.85;3.75;;;13.80;90.30;;;;;;5038707;28;20059;-94
2022/04/22 00:14:36;;;;;;;5.32;3.53;;;13.80;90.30;;;;;;5038754;28;20484;-94
2022/04/22 00:17:01;;;;;;;9.38;5.35;;;13.70;90.30;;;;;;5038476;28;20092;-95
2022/04/22 00:19:27;;;;;;;7.53;4.13;;;13.70;90.30;;;;;;5038496;28;20104;-94
2022/04/22 00:21:53;;;;;;;6.53;3.38;;;13.70;90.30;;;;;;5055889;28;20503;-96
2022/04/22 00:24:19;;;;;;;6.38;3.83;;;13.70;90.30;;;;;;5022137;28;20397;-95
2022/04/22 00:26:45;;;;;;;9.45;3.50;;;13.70;90.30;;;;;;5038222;28;20028;-94
2022/04/22 00:29:11;;;;;;;5.90;3.17;;;13.70;90.50;;;;;;5038103;28;20029;-95
2022/04/22 00:31:37;;;;;;;7.65;2.63;;;13.70;90.40;;;;;;5037972;28;20032;-94
2022/04/22 00:34:03;;;;;;;5.20;2.67;;;13.70;90.40;;;;;;5038078;28;20104;-95
2022/04/22 00:36:29;;;;;;;3.22;2.58;;;13.70;90.40;;;;;;5038202;28;20071;-93
2022/04/22 00:38:56;;;;;;;4.13;2.45;;;13.70;90.40;;;;;;5037955;28;20017;-95
2022/04/22 00:41:22;;;;;;;8.43;2.45;;;13.70;90.40;;;;;;5038018;28;20025;-95
2022/04/22 00:43:53;;;;;;;5.13;2.63;;;13.70;90.40;;;;;;5037741;28;20021;-95
2022/04/22 00:46:19;;;;;;;3.85;2.20;;;13.60;90.50;;;;;;5037799;28;20154;-94
2022/04/22 00:48:45;;;;;;;3.80;2.50;;;13.60;90.40;;;;;;5037797;28;20392;-94
2022/04/22 00:51:12;;;;;;;7.03;2.60;;;13.60;90.40;;;;;;5038339;28;20465;-94
2022/04/22 00:53:40;;;;;;;4.18;2.20;;;13.60;90.50;;;;;;5037637;28;20488;-95
2022/04/22 00:56:13;;;;;;;5.50;2.40;;;13.60;90.50;;;;;;5037659;28;20021;-94
2022/04/22 00:58:44;;;;;;;3.05;2.38;;;13.60;90.50;;;;;;5055720;28;20052;-95
2022/04/22 01:01:11;;;;;;;3.10;2.03;;;13.60;90.50;;;;;;5037487;28;20102;-95
2022/04/22 01:03:37;;;;;;;4.07;2.33;;;13.60;90.50;;;;;;5037604;28;20032;-94
2022/04/22 01:11:36;;;;;;;3.78;2.30;;;13.50;90.50;;;;;;5055516;28;20056;-94
2022/04/22 01:14:04;;;;;;;3.50;2.28;;;13.50;90.40;;;;;;5037315;28;20075;-96
2022/04/22 01:16:30;;;;;;;4.38;2.38;;;13.50;90.40;;;;;;5037150;28;20072;-95
2022/04/22 01:18:56;;;;;;;6.13;2.35;;;13.50;90.40;;;;;;5037115;28;20017;-95
2022/04/22 01:21:22;;;;;;;4.65;2.53;;;13.50;90.50;;;;;;5054821;28;20365;-95
2022/04/22 01:23:48;;;;;;;4.43;2.13;;;13.50;90.40;;;;;;5019451;28;20404;-94
2022/04/22 01:26:14;;;;;;;3.47;2.20;;;13.50;90.40;;;;;;5017329;28;20036;-94
2022/04/22 01:28:40;;;;;;;2.58;1.90;;;13.50;90.80;;;;;;5017247;28;20057;-96
2022/04/22 01:31:06;;;;;;;4.05;2.10;;;13.40;90.40;;;;;;5017152;28;20044;-96
2022/04/22 01:33:32;;;;;;;5.03;2.22;;;13.40;90.40;;;;;;5017378;28;20028;-92
2022/04/22 01:35:58;;;;;;;3.38;2.08;;;13.40;90.40;;;;;;5017163;28;20033;-93
2022/04/22 01:38:24;;;;;;;3.85;2.08;;;13.40;90.40;;;;;;5017125;28;20033;-95
2022/04/22 01:40:50;;;;;;;3.35;2.20;;;13.40;90.40;;;;;;5017010;28;20017;-95
2022/04/22 01:43:17;;;;;;;6.22;2.30;;;13.40;90.40;;;;;;5016962;28;20072;-95
2022/04/22 01:45:42;;;;;;;2.55;2.05;;;13.40;90.40;;;;;;5034615;28;20025;-94
2022/04/22 01:48:08;;;;;;;2.88;2.10;;;13.40;90.50;;;;;;5034787;28;20060;-95
2022/04/22 01:50:34;;;;;;;3.17;2.10;;;13.40;90.50;;;;;;5016958;28;20093;-94
2022/04/22 01:52:59;;;;;;;4.07;2.45;;;13.30;90.50;;;;;;5034502;28;20061;-94
2022/04/22 01:55:27;;;;;;;3.67;2.38;;;13.30;90.50;;;;;;5034175;28;20030;-94
2022/04/22 01:57:54;;;;;;;3.95;2.40;;;13.30;90.50;;;;;;5017404;28;20108;-94
2022/04/22 02:00:20;;;;;;;3.30;2.10;;;13.30;90.50;;;;;;5016633;28;20026;-94
2022/04/22 02:02:46;;;;;;;3.33;2.13;;;13.30;90.50;;;;;;5016734;28;20033;-95
2022/04/22 02:05:12;;;;;;;3.15;2.17;;;13.30;90.50;;;;;;5016715;28;20481;-94
2022/04/22 02:07:41;;;;;;;3.92;2.22;;;13.30;90.50;;;;;;5017117;28;20543;-94
2022/04/22 02:10:08;;;;;;;3.22;2.28;;;13.30;90.50;;;;;;5016676;28;20025;-94
2022/04/22 02:12:34;;;;;;;3.38;2.13;;;13.30;90.50;;;;;;5016557;28;20064;-94
2022/04/22 02:14:59;;;;;;;4.55;2.25;;;13.20;90.50;;;;;;5016635;28;20045;-94
2022/04/22 02:17:25;;;;;;;3.60;2.38;;;13.20;90.50;;;;;;5016717;28;20017;-94
2022/04/22 02:19:51;;;;;;;3.10;2.30;;;13.20;90.50;;;;;;5016469;28;20032;-95
2022/04/22 02:22:16;;;;;;;5.40;2.17;;;13.20;90.50;;;;;;5016440;28;20055;-95
2022/04/22 02:24:42;;;;;;;3.35;2.10;;;13.20;90.50;;;;;;5016604;28;20027;-94
2022/04/22 02:29:52;;;;;;;3.58;2.22;;;13.20;90.50;;;;;;5034512;28;20136;-95
2022/04/22 02:32:17;;;;;;;5.43;2.42;;;13.20;90.50;;;;;;5016338;28;20121;-94
2022/04/22 02:34:43;;;;;;;3.10;2.30;;;13.20;90.50;;;;;;5016452;28;20032;-95
2022/04/22 02:37:10;;;;;;;4.10;2.30;;;13.20;90.50;;;;;;5016308;28;20441;-94
2022/04/22 02:39:36;;;;;;;5.55;2.38;;;13.10;90.50;;;;;;5016386;28;20057;-94
2022/04/22 02:47:30;;;;;;;2.97;2.30;;;13.10;90.60;;;;;;5034512;28;20504;-93
2022/04/22 02:49:56;;;;;;;3.28;2.22;;;13.10;90.60;;;;;;5016489;28;20022;-94
2022/04/22 02:52:22;;;;;;;3.25;2.30;;;13.10;90.60;;;;;;5016304;28;20036;-94
2022/04/22 02:54:47;;;;;;;4.18;2.30;;;13.10;90.60;;;;;;5016328;28;20124;-94
2022/04/22 02:57:16;;;;;;;4.20;2.70;;;13.10;90.60;;;;;;5016299;28;20018;-95
2022/04/22 02:59:45;;;;;;;5.88;2.90;;;13.10;90.60;;;;;;5016106;28;20032;-94
2022/04/22 03:02:10;;;;;;;4.80;2.58;;;13.10;90.60;;;;;;5016152;28;20032;-93
2022/04/22 03:04:36;;;;;;;3.65;2.55;;;13.10;90.70;;;;;;5016236;28;20034;-95
2022/04/22 03:07:02;;;;;;;4.22;2.60;;;13.10;90.70;;;;;;5017681;28;20021;-94
2022/04/22 03:09:28;;;;;;;3.58;2.67;;;13.00;90.70;;;;;;5037623;28;20338;-94
2022/04/22 03:11:54;;;;;;;4.15;2.33;;;13.00;90.80;;;;;;5020081;28;20179;-94
2022/04/22 03:14:20;;;;;;;3.10;2.00;;;13.00;90.70;;;;;;5037328;28;20022;-94
2022/04/22 03:16:46;;;;;;;4.20;2.60;;;13.00;90.70;;;;;;5019846;28;20044;-94
2022/04/22 03:19:11;;;;;;;3.85;3.00;;;13.00;90.60;;;;;;5019780;28;20025;-95
2022/04/22 03:21:37;;;;;;;4.53;2.35;;;13.00;90.90;;;;;;5019828;28;20037;-93
2022/04/22 03:24:03;;;;;;;5.47;2.40;;;13.00;90.60;;;;;;5019438;28;20041;-93
2022/04/22 03:26:29;;;;;;;4.32;2.60;;;13.00;90.60;;;;;;5019341;28;20021;-94
2022/04/22 03:28:57;;;;;;;4.22;2.88;;;13.00;90.60;;;;;;5019642;28;20036;-93
2022/04/22 03:31:23;;;;;;;2.75;2.22;;;13.00;90.60;;;;;;5019446;28;20022;-95
2022/04/22 03:33:48;;;;;;;3.05;2.40;;;12.90;90.50;;;;;;5019517;28;20075;-94
2022/04/22 03:36:14;;;;;;;6.57;2.42;;;12.90;90.50;;;;;;5019399;28;20025;-94
2022/04/22 03:38:40;;;;;;;3.60;2.60;;;12.90;90.50;;;;;;5019423;28;20021;-93
2022/04/22 03:41:06;;;;;;;3.80;2.40;;;12.90;90.50;;;;;;5037033;28;20463;-93
2022/04/22 03:43:32;;;;;;;3.35;2.30;;;12.90;90.50;;;;;;5019344;28;20065;-94
2022/04/22 03:45:58;;;;;;;3.25;2.20;;;12.90;90.40;;;;;;5019325;28;20033;-93
2022/04/22 03:48:24;;;;;;;5.03;2.60;;;12.90;90.40;;;;;;5019013;28;20025;-93
2022/04/22 03:50:50;;;;;;;5.70;2.53;;;12.90;90.40;;;;;;5019067;28;20027;-94
2022/04/22 03:53:16;;;;;;;3.90;2.95;;;12.90;90.40;;;;;;5018886;28;20029;-94
2022/04/22 03:55:43;;;;;;;5.32;3.25;;;12.90;90.50;;;;;;5019007;28;20442;-94
2022/04/22 03:58:12;;;;;;;6.40;2.70;;;12.90;90.40;;;;;;5036607;28;20029;-94
2022/04/22 04:00:49;;;;;;;3.80;2.78;;;12.90;90.50;;;;;;5019299;28;20492;-94
2022/04/22 04:03:23;;;;;;;3.15;2.70;;;12.90;90.50;;;;;;5036666;28;20111;-93
2022/04/22 04:05:50;;;;;;;4.10;2.70;;;12.90;90.60;;;;;;5019035;28;20080;-96
2022/04/22 04:08:21;;;;;;;3.65;2.67;;;12.80;90.50;;;;;;5019055;28;20029;-95
2022/04/22 04:16:16;;;;;;;5.50;3.90;;;12.80;90.40;;;;;;5036925;28;20033;-94
2022/04/22 04:18:42;;;;;;;5.75;3.83;;;12.80;90.40;;;;;;5018162;28;20036;-94
2022/04/22 04:23:54;;;;;;;5.30;3.58;;;12.80;90.50;;;;;;5055181;28;20043;-94
2022/04/22 04:26:21;;;;;;;4.43;3.25;;;12.80;90.50;;;;;;5038529;28;20036;-93
2022/04/22 04:28:48;;;;;;;5.85;3.65;;;12.70;90.50;;;;;;5056623;28;20460;-96
2022/04/22 04:31:15;;;;;;;5.00;3.40;;;12.70;90.50;;;;;;5038842;28;20025;-96
2022/04/22 04:33:42;;;;;;;5.32;3.33;;;12.70;90.50;;;;;;5038364;28;20053;-95
2022/04/22 04:36:10;;;;;;;5.50;3.67;;;12.70;90.40;;;;;;5038505;28;20108;-95
2022/04/22 04:38:40;;;;;;;4.70;3.20;;;12.70;90.40;;;;;;5038686;28;20021;-95
2022/04/22 04:41:12;;;;;;;5.45;3.63;;;12.70;90.40;;;;;;5037954;28;20021;-96
2022/04/22 04:43:38;;;;;;;5.05;3.67;;;12.70;90.40;;;;;;5055910;28;20472;-96
2022/04/22 04:46:04;;;;;;;5.72;3.92;;;12.70;90.50;;;;;;5038348;28;20017;-94
2022/04/22 04:48:30;;;;;;;4.97;3.53;;;12.70;90.50;;;;;;5037982;28;20028;-96
2022/04/22 04:50:56;;;;;;;5.25;3.75;;;12.70;90.50;;;;;;5037973;28;20025;-96
2022/04/22 04:53:25;;;;;;;5.45;3.45;;;12.70;90.50;;;;;;5037806;28;20067;-96
2022/04/22 04:55:52;;;;;;;4.85;3.58;;;12.70;90.50;;;;;;5037912;28;20484;-96
2022/04/22 04:58:18;;;;;;;7.15;3.55;;;12.70;90.50;;;;;;5037743;28;20021;-95
2022/04/22 05:00:45;;;;;;;5.15;3.50;;;12.70;90.40;;;;;;5038139;28;20021;-95
2022/04/22 05:03:11;;;;;;;6.30;3.80;;;12.70;90.50;;;;;;5038929;28;20098;-96
2022/04/22 05:05:37;;;;;;;4.53;3.58;;;12.70;90.50;;;;;;5038866;28;20025;-95
2022/04/22 05:08:05;;;;;;;5.38;3.78;;;12.60;90.50;;;;;;5038302;28;20033;-95
2022/04/22 05:10:32;;;;;;;6.03;3.75;;;12.70;90.50;;;;;;5037408;28;20048;-96
2022/04/22 05:12:59;;;;;;;5.80;3.78;;;12.60;90.50;;;;;;5037465;28;20029;-95
2022/04/22 05:15:26;;;;;;;5.78;4.10;;;12.70;90.50;;;;;;5038799;28;20108;-95
2022/04/22 05:17:53;;;;;;;5.68;4.03;;;12.70;90.50;;;;;;5044127;28;20021;-95
2022/04/22 05:20:27;;;;;;;8.68;3.97;;;12.70;90.50;;;;;;5039340;28;20111;-96
2022/04/22 05:22:54;;;;;;;7.53;3.95;;;12.70;90.50;;;;;;5042427;28;20048;-96
2022/04/22 05:25:20;;;;;;;6.25;3.80;;;12.70;90.50;;;;;;5041327;28;20045;-95
2022/04/22 05:27:47;;;;;;;6.78;4.20;;;12.70;90.50;;;;;;5040254;28;20393;-95
2022/04/22 05:32:58;;;;;;;5.70;4.10;;;12.70;90.50;;;;;;5058571;28;20503;-96
2022/04/22 05:35:27;;;;;;;7.22;3.90;;;12.70;90.60;;;;;;5041218;28;20017;-95
2022/04/22 05:37:54;;;;;;;7.80;4.10;;;12.70;90.60;;;;;;5039211;28;20021;-96
2022/04/22 05:40:22;;;;;;;6.32;4.50;;;12.70;90.60;;;;;;5040065;28;20032;-95
2022/04/22 05:42:49;;;;;;;7.45;4.85;;;12.70;90.60;;;;;;5041235;28;20029;-96
2022/04/22 05:45:16;;;;;;;5.63;4.05;;;12.70;90.70;;;;;;5041752;28;20025;-96
2022/04/22 05:47:43;;;;;;;6.97;4.22;;;12.70;90.70;;;;;;5041299;28;20029;-95
2022/04/22 05:50:11;;;;;;;8.55;4.70;;;12.70;90.70;;;;;;5038805;28;20048;-95
2022/04/22 05:52:37;;;;;;;8.85;4.75;;;12.70;90.70;;;;;;5039059;28;20045;-95
2022/04/22 05:55:05;;;;;;;7.03;4.88;;;12.70;90.70;;;;;;5043001;28;20197;-95
2022/04/22 05:57:32;;;;;;;6.53;4.68;;;12.70;90.80;;;;;;5040543;28;20129;-95
2022/04/22 05:59:58;;;;;;;10.45;4.85;;;12.70;90.80;;;;;;5039769;28;20456;-96
2022/04/22 06:02:24;;;;;;;8.18;4.80;;;12.70;90.80;;;;;;5040188;28;20475;-95
2022/04/22 06:04:50;;;;;;;9.10;4.55;;;12.70;90.90;;;;;;5040426;28;20068;-96
2022/04/22 06:07:17;;;;;;;12.88;5.05;;;12.70;90.90;;;;;;5040097;28;20025;-96
2022/04/22 06:12:28;;;;;;;7.15;5.35;;;12.70;91.00;;;;;;5058666;28;20048;-95
2022/04/22 06:14:54;;;;;;;7.72;4.70;;;12.70;91.00;;;;;;5025897;28;20028;-96
2022/04/22 06:17:20;;;;;;;5.72;4.85;;;12.80;91.10;;;;;;5045717;28;20021;-95
2022/04/22 06:19:46;;;;;;;10.05;4.97;;;12.80;91.20;;;;;;5044396;28;20017;-95
2022/04/22 06:22:12;;;;;;;7.30;5.50;;;12.80;91.20;;;;;;5039672;28;20046;-95
2022/04/22 06:24:37;;;;;;;9.10;5.07;;;12.80;91.30;;;;;;5021333;28;20041;-96
2022/04/22 06:27:03;;;;;;;10.15;4.88;;;12.80;91.30;;;;;;5019906;28;20064;-95
2022/04/22 06:29:29;;;;;;;7.50;5.07;;;12.80;91.30;;;;;;5024085;28;20026;-95
2022/04/22 06:31:55;;;;;;;7.03;5.38;;;12.80;91.50;;;;;;5041388;28;20087;-96
2022/04/22 06:34:22;;;;;;;7.30;5.70;;;12.80;91.60;;;;;;5023640;28;20429;-95
2022/04/22 06:36:48;;;;;;;6.97;5.60;;;12.80;91.70;;;;;;5024683;28;20047;-95
2022/04/22 06:39:15;;;;;;;10.98;6.45;;;12.90;91.80;;;;;;5026393;28;20033;-95
2022/04/22 06:47:10;;;;;;;10.13;6.63;;;12.90;92.00;;;;;;5045333;28;20075;-95
2022/04/22 06:49:36;;;;;;;9.57;6.25;;;12.90;92.10;;;;;;5027225;28;20076;-96
2022/04/22 06:52:02;;;;;;;9.48;6.03;;;12.90;92.10;;;;;;5045127;28;20033;-96
2022/04/22 06:54:28;;;;;;;9.73;6.93;;;12.90;92.20;;;;;;5025313;28;20104;-95
2022/04/22 06:56:54;;;;;;;11.48;6.57;;;13.00;92.30;;;;;;5024548;28;20507;-96
2022/04/22 06:59:22;;;;;;;9.82;6.60;;;13.00;92.30;;;;;;5042274;28;20384;-95
2022/04/22 07:01:48;;;;;;;15.20;7.35;;;13.00;92.40;;;;;;5022488;28;20033;-96
2022/04/22 07:04:14;;;;;;;13.45;7.15;;;13.10;92.50;;;;;;5023203;28;20032;-95
2022/04/22 07:06:41;;;;;;;10.25;7.22;;;13.10;92.50;;;;;;5025691;28;20040;-95
2022/04/22 07:09:08;;;;;;;10.07;7.13;;;13.10;92.50;;;;;;5024772;28;20083;-95
2022/04/22 07:11:35;;;;;;;10.90;7.20;;;13.10;92.60;;;;;;5025111;28;20047;-95
2022/04/22 07:14:01;;;;;;;11.52;7.03;;;13.20;92.50;;;;;;5025792;28;20033;-95
2022/04/22 07:16:27;;;;;;;9.90;7.43;;;13.20;92.60;;;;;;5024156;28;20021;-95
2022/04/22 07:18:54;;;;;;;12.93;7.72;;;13.20;92.50;;;;;;5025646;28;20021;-95
2022/04/22 07:21:23;;;;;;;11.25;6.03;;;13.20;92.60;;;;;;5026583;28;20082;-96
2022/04/22 07:23:51;;;;;;;10.60;7.18;;;13.30;92.50;;;;;;5024774;28;20046;-95
2022/04/22 07:26:19;;;;;;;8.82;6.45;;;13.30;92.70;;;;;;5026041;28;20022;-94
2022/04/22 07:28:49;;;;;;;12.57;7.05;;;13.30;92.70;;;;;;5021187;28;20018;-94
2022/04/22 07:31:18;;;;;;;10.73;7.57;;;13.30;92.60;;;;;;5020222;28;20108;-95
2022/04/22 07:33:44;;;;;;;10.07;7.35;;;13.40;92.90;;;;;;5021051;28;20034;-95
2022/04/22 07:36:10;;;;;;;14.60;6.53;;;13.40;92.80;;;;;;5022281;28;20076;-94
2022/04/22 07:38:35;;;;;;;11.20;7.45;;;13.40;92.70;;;;;;5022177;28;20489;-94
2022/04/22 07:41:02;;;;;;;10.45;7.80;;;13.40;92.90;;;;;;5021803;28;20021;-95
2022/04/22 07:48:57;;;;;;;9.98;7.70;;;13.50;92.60;;;;;;5037466;28;20095;-94
2022/04/22 07:51:26;;;;;;;10.15;6.15;;;13.50;92.70;;;;;;5018940;28;20080;-94
2022/04/22 07:53:55;;;;;;;10.85;6.82;;;13.60;92.50;;;;;;5018934;28;20044;-95
2022/04/22 07:56:21;;;;;;;10.48;6.93;;;13.60;92.60;;;;;;5019819;28;20075;-94
2022/04/22 07:58:47;;;;;;;8.80;6.70;;;13.60;92.60;;;;;;5019146;28;20025;-94
2022/04/22 08:01:13;;;;;;;9.77;7.15;;;13.70;92.70;;;;;;5018976;28;20026;-95
2022/04/22 08:03:39;;;;;;;9.75;6.80;;;13.70;92.60;;;;;;5019565;28;20033;-94
2022/04/22 08:06:10;;;;;;;7.40;6.00;;;13.70;92.60;;;;;;5019248;28;20021;-95
2022/04/22 08:08:36;;;;;;;10.07;7.45;;;13.70;92.70;;;;;;5019027;28;20048;-94
2022/04/22 08:11:02;;;;;;;10.00;7.30;;;13.70;92.70;;;;;;5018997;28;20026;-95
2022/04/22 08:13:28;;;;;;;8.65;6.40;;;13.80;92.80;;;;;;5019011;28;20437;-95
2022/04/22 08:15:53;;;;;;;9.32;6.32;;;13.80;92.80;;;;;;5018830;28;20017;-95
2022/04/22 08:18:19;;;;;;;9.43;6.22;;;13.80;92.70;;;;;;5018823;28;20049;-95
2022/04/22 08:20:45;;;;;;;9.35;7.10;;;13.90;92.70;;;;;;5018778;28;20017;-94
2022/04/22 08:23:11;;;;;;;9.27;6.78;;;13.90;92.80;;;;;;5018969;28;20042;-95
2022/04/22 08:25:37;;;;;;;9.43;6.45;;;13.90;92.80;;;;;;5019542;28;20072;-95
2022/04/22 08:28:04;;;;;;;9.00;6.70;;;14.00;92.70;;;;;;5018600;28;20056;-94
2022/04/22 08:30:30;;;;;;;9.00;6.47;;;14.00;92.70;;;;;;5019213;28;20033;-95
2022/04/22 08:32:56;;;;;;;8.48;6.43;;;14.00;92.70;;;;;;5018427;28;20029;-93
2022/04/22 08:35:22;;;;;;;10.18;7.15;;;14.00;92.70;;;;;;5018741;28;20060;-94
2022/04/22 08:37:48;;;;;;;9.30;6.47;;;14.10;92.70;;;;;;5020160;28;20473;-95
2022/04/22 08:40:14;;;;;;;10.40;7.15;;;14.10;92.80;;;;;;5020023;28;20018;-95
2022/04/22 08:42:41;;;;;;;10.45;7.22;;;14.10;92.80;;;;;;5036328;28;20481;-94
2022/04/22 08:45:09;;;;;;;11.82;7.00;;;14.10;92.80;;;;;;5018658;28;20036;-93
2022/04/22 08:50:21;;;;;;;19.80;15.77;;;14.20;92.70;;;;;;5037480;28;20137;-94
2022/04/22 08:52:56;;;;;;;19.30;13.10;;;14.20;95.40;;;;;;5018644;28;20076;-94
2022/04/22 08:55:24;;;;;;;19.38;13.05;;;14.00;94.60;;;;;;5018622;28;20018;-95
2022/04/22 08:57:50;;;;;;;16.58;12.52;;;14.10;94.60;;;;;;5018750;28;20028;-93
2022/04/22 09:00:17;;;;;;;15.90;11.40;;;14.10;94.30;;;;;;5018496;28;20385;-94
2022/04/22 09:02:42;;;;;;;20.27;11.55;;;14.20;94.10;;;;;;5018505;28;20049;-94
2022/04/22 09:05:09;;;;;;;15.73;10.50;;;14.20;94.00;;;;;;5017533;28;20030;-94
2022/04/22 09:07:37;;;;;;;18.52;10.75;;;14.30;93.80;;;;;;5018351;28;20036;-94
2022/04/22 09:10:03;;;;;;;13.18;10.40;;;14.30;93.70;;;;;;5018597;28;20076;-94
2022/04/22 09:12:29;;;;;;;17.23;12.88;;;14.40;93.60;;;;;;5019027;28;20060;-92
2022/04/22 09:14:58;;;;;;;18.42;13.25;;;14.60;94.10;;;;;;5017546;28;20022;-93
2022/04/22 09:17:29;;;;;;;18.40;13.30;;;14.50;94.30;;;;;;5018521;28;20029;-93
2022/04/22 09:20:00;;;;;;;16.25;12.40;;;14.50;94.20;;;;;;5018411;28;20048;-94
2022/04/22 09:22:34;;;;;;;18.98;11.93;;;14.50;94.10;;;;;;5018743;28;20566;-94
2022/04/22 09:25:01;;;;;;;15.77;11.37;;;14.60;94.00;;;;;;5018060;28;20029;-95
2022/04/22 09:27:38;;;;;;;15.80;11.93;;;14.60;93.90;;;;;;5018008;28;20114;-93
2022/04/22 09:30:09;;;;;;;15.05;11.32;;;14.70;93.90;;;;;;5018177;28;20025;-94
2022/04/22 09:32:39;;;;;;;13.75;10.50;;;14.70;93.80;;;;;;5017933;28;20120;-94
2022/04/22 09:35:20;;;;;;;16.83;10.75;;;14.70;93.70;;;;;;5018191;28;20430;-93
2022/04/22 09:43:33;;;;;;;11.80;9.27;;;14.80;93.60;;;;;;5035873;28;20035;-95
2022/04/22 09:45:59;;;;;;;11.45;8.55;;;14.80;93.60;;;;;;5018179;28;20456;-94
2022/04/22 09:48:25;;;;;;;11.43;7.82;;;14.90;93.40;;;;;;5017587;28;20083;-93
2022/04/22 09:50:55;;;;;;;13.70;8.43;;;14.90;93.30;;;;;;5018000;28;20070;-94
2022/04/22 09:53:34;;;;;;;12.68;8.63;;;14.90;93.30;;;;;;5017674;28;20044;-93
2022/04/22 09:56:08;;;;;;;11.02;7.60;;;14.90;93.40;;;;;;5017603;28;20018;-94
2022/04/22 09:58:35;;;;;;;11.68;7.72;;;14.90;93.30;;;;;;5017648;28;20044;-93
2022/04/22 10:01:06;;;;;;;10.82;7.20;;;14.90;93.30;;;;;;5017896;28;20026;-94
2022/04/22 10:03:41;;;;;;;11.30;8.10;;;15.00;93.20;;;;;;5017397;28;20029;-94
2022/04/22 10:06:07;;;;;;;8.98;7.43;;;15.00;93.30;;;;;;5017591;28;20029;-93
2022/04/22 10:08:39;;;;;;;8.65;7.07;;;15.00;93.20;;;;;;5035010;28;20029;-94
2022/04/22 10:11:08;;;;;;;10.98;8.23;;;15.10;93.30;;;;;;5017439;28;20079;-94
2022/04/22 10:13:41;;;;;;;12.57;7.82;;;15.10;93.40;;;;;;5017380;28;20389;-94
2022/04/22 10:16:09;;;;;;;11.57;7.20;;;15.10;93.30;;;;;;5016865;28;20104;-94
2022/04/22 10:18:35;;;;;;;10.30;7.53;;;15.10;93.40;;;;;;5017254;28;20112;-94
2022/04/22 10:21:02;;;;;;;11.23;7.07;;;15.10;93.30;;;;;;5034804;28;20025;-93
2022/04/22 10:23:30;;;;;;;9.00;6.78;;;15.10;93.20;;;;;;5016421;28;20052;-94
2022/04/22 10:25:56;;;;;;;14.52;7.70;;;15.10;93.20;;;;;;5018062;28;20544;-94
2022/04/22 10:28:24;;;;;;;8.70;6.28;;;15.20;93.30;;;;;;5017389;28;20036;-92
2022/04/22 10:30:53;;;;;;;8.38;6.70;;;15.20;93.30;;;;;;5017848;28;20022;-94
2022/04/22 10:33:23;;;;;;;9.85;6.85;;;15.20;93.20;;;;;;5017348;28;20045;-94
2022/04/22 10:35:56;;;;;;;9.55;7.32;;;15.20;93.30;;;;;;5017168;28;20029;-92
2022/04/22 10:38:32;;;;;;;9.77;6.63;;;15.20;93.30;;;;;;5017407;28;20326;-95
2022/04/22 10:41:01;;;;;;;8.73;6.13;;;15.30;93.30;;;;;;5016955;28;20029;-94
2022/04/22 10:43:27;;;;;;;8.45;6.05;;;15.30;93.20;;;;;;5016039;28;20540;-92
2022/04/22 10:48:40;;;;;;;8.93;5.70;;;15.30;93.20;;;;;;5034511;28;20056;-91
2022/04/22 10:51:08;;;;;;;11.05;7.50;;;15.40;93.20;;;;;;5034005;28;20083;-92
2022/04/22 10:53:48;;;;;;;8.88;6.30;;;15.40;93.20;;;;;;5016270;28;20025;-91
2022/04/22 10:56:27;;;;;;;10.45;7.00;;;15.40;93.10;;;;;;5017395;28;20049;-91
2022/04/22 10:59:20;;;;;;;8.18;6.68;;;15.50;93.10;;;;;;5016816;28;20048;-92
2022/04/22 11:01:47;;;;;;;9.40;6.30;;;15.50;93.00;;;;;;5016820;28;20029;-93
2022/04/22 11:04:24;;;;;;;9.82;7.50;;;15.50;93.00;;;;;;5016829;28;20021;-95
2022/04/22 11:06:53;;;;;;;11.40;6.53;;;15.50;93.10;;;;;;5016753;28;20113;-92
2022/04/22 11:09:26;;;;;;;8.65;7.03;;;15.60;93.10;;;;;;5016746;28;20116;-91
2022/04/22 11:11:53;;;;;;;7.10;5.75;;;15.60;92.80;;;;;;5017002;28;20089;-95
2022/04/22 11:14:27;;;;;;;8.23;6.85;;;15.60;93.00;;;;;;5017273;28;20071;-95
2022/04/22 11:16:54;;;;;;;8.17;6.00;;;15.50;93.10;;;;;;5017047;28;20029;-92
2022/04/22 11:19:19;;;;;;;10.95;7.20;;;15.50;93.10;;;;;;5016680;28;20268;-92
2022/04/22 11:21:53;;;;;;;9.85;6.38;;;15.60;93.20;;;;;;5017293;28;20036;-92
2022/04/22 11:24:21;;;;;;;8.82;7.00;;;15.60;93.50;;;;;;5036375;28;20029;-94
2022/04/22 11:26:47;;;;;;;8.48;6.32;;;15.60;93.20;;;;;;5035910;28;20025;-92
2022/04/22 11:29:15;;;;;;;9.65;6.57;;;15.60;93.10;;;;;;5039214;28;20025;-92
2022/04/22 11:32:12;;;;;;;8.57;5.50;;;15.50;93.20;;;;;;5041012;28;20025;-91
2022/04/22 11:34:37;;;;;;;8.90;6.30;;;15.50;93.10;;;;;;5038983;28;20029;-92
2022/04/22 11:37:17;;;;;;;7.43;5.68;;;15.50;93.60;;;;;;5039520;28;20112;-91
2022/04/22 11:39:48;;;;;;;8.23;5.80;;;15.40;93.20;;;;;;5040093;28;20025;-91
2022/04/22 11:42:17;;;;;;;8.30;5.32;;;15.40;93.40;;;;;;5040144;28;20519;-90
2022/04/22 11:45:02;;;;;;;8.95;6.45;;;15.40;93.20;;;;;;5040159;28;20104;-92
2022/04/22 11:47:28;;;;;;;9.63;5.60;;;15.40;93.40;;;;;;5026201;28;20132;-90
2022/04/22 11:49:56;;;;;;;11.05;6.05;;;15.40;93.30;;;;;;5039243;28;20431;-91
2022/04/22 11:52:22;;;;;;;6.05;5.32;;;15.40;93.40;;;;;;5038965;28;20025;-90
2022/04/22 11:54:49;;;;;;;9.38;6.13;;;15.50;93.30;;;;;;5038971;28;20068;-91
2022/04/22 11:57:21;;;;;;;8.10;6.10;;;15.50;93.30;;;;;;5039098;28;20108;-90
2022/04/22 12:05:32;;;;;;;7.50;5.68;;;15.50;93.40;;;;;;5038638;28;20025;-91
2022/04/22 12:05:32;;;;;;;8.25;5.88;;;15.60;93.40;;;;;;5057048;28;20036;-91
2022/04/22 12:08:05;;;;;;;10.85;7.30;;;15.60;93.30;;;;;;5038513;28;20043;-90
2022/04/22 12:10:33;;;;;;;9.00;6.70;;;15.60;93.30;;;;;;5038779;28;20377;-90
2022/04/22 12:13:02;;;;;;;7.85;6.10;;;15.70;93.40;;;;;;5055800;28;20024;-90
2022/04/22 12:15:28;;;;;;;6.75;5.20;;;15.70;93.20;;;;;;5038211;28;20127;-90
2022/04/22 12:17:54;;;;;;;9.77;5.88;;;15.80;93.20;;;;;;5038188;28;20029;-91
2022/04/22 12:20:26;;;;;;;7.18;5.60;;;15.80;93.20;;;;;;5038210;28;20026;-90
2022/04/22 12:22:53;;;;;;;7.47;5.53;;;15.80;93.00;;;;;;5038233;28;20045;-91
2022/04/22 12:25:20;;;;;;;6.60;5.20;;;15.80;93.20;;;;;;5038141;28;20029;-91
2022/04/22 12:28:09;;;;;;;8.30;4.45;;;15.90;93.00;;;;;;5038133;28;20039;-90
2022/04/22 12:30:37;;;;;;;8.63;5.00;;;15.90;92.90;;;;;;5055990;28;20025;-94
2022/04/22 12:33:03;;;;;;;6.90;4.57;;;15.90;92.80;;;;;;5038145;28;20076;-91
2022/04/22 12:35:30;;;;;;;7.43;4.80;;;16.00;92.80;;;;;;5038349;28;20017;-90
2022/04/22 12:37:58;;;;;;;6.60;5.43;;;16.00;92.70;;;;;;5055944;28;20476;-93
2022/04/22 12:40:26;;;;;;;10.23;5.32;;;16.10;92.90;;;;;;5037834;28;20510;-93
2022/04/22 12:42:52;;;;;;;8.10;5.07;;;16.30;92.60;;;;;;5038513;28;20051;-91
2022/04/22 12:54:04;;;;;;;7.03;5.05;;;16.50;92.10;;;;;;5056734;28;20035;-94
2022/04/22 12:56:30;;;;;;;6.18;4.68;;;16.50;92.30;;;;;;5038613;28;20104;-93
2022/04/22 12:58:59;;;;;;;7.45;4.95;;;16.60;92.00;;;;;;5038053;28;20025;-92
2022/04/22 13:01:36;;;;;;;5.50;4.57;;;16.80;92.00;;;;;;5038450;28;20028;-94
2022/04/22 13:04:03;;;;;;;5.90;3.90;;;16.80;91.80;;;;;;5037720;28;20025;-93
2022/04/22 13:06:35;;;;;;;5.38;4.25;;;16.90;91.70;;;;;;5037918;28;20060;-93
2022/04/22 13:09:01;;;;;;;5.97;4.40;;;16.80;91.70;;;;;;5038017;28;20021;-94
2022/04/22 13:11:26;;;;;;;6.78;5.00;;;16.70;91.90;;;;;;5038265;28;20039;-93
2022/04/22 13:13:55;;;;;;;6.03;4.72;;;16.60;92.10;;;;;;5037432;28;20036;-94
2022/04/22 13:16:21;;;;;;;7.53;4.78;;;16.50;92.20;;;;;;5037478;28;20053;-93
2022/04/22 13:18:46;;;;;;;6.35;4.63;;;16.50;92.20;;;;;;5037270;28;20024;-93
2022/04/22 13:21:12;;;;;;;5.13;4.22;;;16.50;92.30;;;;;;5037233;28;20063;-93
2022/04/22 13:23:37;;;;;;;5.45;4.43;;;16.60;92.00;;;;;;5037258;28;20048;-94
2022/04/22 13:26:03;;;;;;;5.40;4.25;;;16.70;91.90;;;;;;5038064;28;20040;-92
2022/04/22 13:28:29;;;;;;;7.13;4.43;;;16.80;91.80;;;;;;5037005;28;20024;-93
2022/04/22 13:30:54;;;;;;;6.22;4.55;;;16.80;91.80;;;;;;5037355;28;20021;-93
2022/04/22 13:33:20;;;;;;;5.53;4.00;;;16.80;91.70;;;;;;5036866;28;20029;-94
2022/04/22 13:35:46;;;;;;;5.78;3.70;;;16.70;91.80;;;;;;5037059;28;20025;-93
2022/04/22 13:38:11;;;;;;;9.18;4.28;;;16.70;91.80;;;;;;5037193;28;20017;-94
2022/04/22 13:40:37;;;;;;;5.45;4.18;;;16.50;91.90;;;;;;5037094;28;20021;-93
2022/04/22 13:43:03;;;;;;;7.38;3.65;;;16.40;92.00;;;;;;5036808;28;20025;-92
2022/04/22 13:53:41;;;;;;;5.38;4.10;;;16.70;91.80;;;;;;5054762;28;20036;-94